createdAt,value
2022-08-28T00:02:02.389Z,5.63
2022-08-28T00:04:30.456Z,5.25
2022-08-28T00:06:58.603Z,5.40
2022-08-28T00:09:26.338Z,5.60
2022-08-28T00:11:54.073Z,4.85
2022-08-28T00:14:21.775Z,5.60
2022-08-28T00:16:50.079Z,5.20
2022-08-28T00:19:18.304Z,4.75
2022-08-28T00:21:46.365Z,5.03
2022-08-28T00:24:14.022Z,4.93
2022-08-28T00:27:00.152Z,5.13
2022-08-28T00:29:27.986Z,4.88
2022-08-28T00:31:56.721Z,5.00
2022-08-28T00:34:32.895Z,5.20
2022-08-28T00:37:00.748Z,6.32
2022-08-28T00:39:28.406Z,5.43
2022-08-28T00:41:57.465Z,5.70
2022-08-28T00:44:26.667Z,6.47
2022-08-28T00:46:55.083Z,6.45
2022-08-28T00:49:25.364Z,5.20
2022-08-28T00:52:05.944Z,5.30
2022-08-28T00:54:34.382Z,5.93
2022-08-28T00:57:03.941Z,5.82
2022-08-28T00:59:31.480Z,5.90
2022-08-28T01:01:59.600Z,4.97
2022-08-28T01:04:29.169Z,5.55
2022-08-28T01:06:57.667Z,5.82
2022-08-28T01:09:26.628Z,5.28
2022-08-28T01:11:55.915Z,6.18
2022-08-28T01:14:24.229Z,5.07
2022-08-28T01:16:56.264Z,5.93
2022-08-28T01:19:27.541Z,6.28
2022-08-28T01:22:04.193Z,5.32
2022-08-28T01:24:32.095Z,5.75
2022-08-28T01:26:59.552Z,5.35
2022-08-28T01:29:29.201Z,5.80
2022-08-28T01:31:57.528Z,5.97
2022-08-28T01:34:25.026Z,6.40
2022-08-28T01:36:52.569Z,5.93
2022-08-28T01:39:21.415Z,5.65
2022-08-28T01:41:51.988Z,6.40
2022-08-28T01:44:24.850Z,6.10
2022-08-28T01:46:53.666Z,5.75
2022-08-28T01:49:21.230Z,5.68
2022-08-28T01:51:48.817Z,6.20
2022-08-28T01:54:18.838Z,6.65
2022-08-28T01:56:50.392Z,5.80
2022-08-28T01:59:17.971Z,5.55
2022-08-28T02:01:45.881Z,5.75
2022-08-28T02:04:14.370Z,6.10
2022-08-28T02:06:42.532Z,5.68
2022-08-28T02:09:14.368Z,5.57
2022-08-28T02:11:46.493Z,6.85
2022-08-28T02:14:14.325Z,6.60
2022-08-28T02:16:41.827Z,5.80
2022-08-28T02:19:09.354Z,6.00
2022-08-28T02:21:36.843Z,6.93
2022-08-28T02:24:05.076Z,5.60
2022-08-28T02:26:32.598Z,6.30
2022-08-28T02:29:00.289Z,6.20
2022-08-28T02:31:28.084Z,7.00
2022-08-28T02:33:56.022Z,6.60
2022-08-28T02:36:24.036Z,6.20
2022-08-28T02:38:56.998Z,6.50
2022-08-28T02:41:25.388Z,7.00
2022-08-28T02:43:53.436Z,6.13
2022-08-28T02:46:20.928Z,6.43
2022-08-28T02:48:48.418Z,6.97
2022-08-28T02:51:15.936Z,6.53
2022-08-28T02:53:43.801Z,6.47
2022-08-28T02:56:12.081Z,6.13
2022-08-28T02:58:40.028Z,6.55
2022-08-28T03:01:10.084Z,6.50
2022-08-28T03:03:37.703Z,6.28
2022-08-28T03:06:08.743Z,6.80
2022-08-28T03:08:36.276Z,6.28
2022-08-28T03:11:03.853Z,6.47
2022-08-28T03:13:31.435Z,6.45
2022-08-28T03:15:59.481Z,6.40
2022-08-28T03:18:30.276Z,6.20
2022-08-28T03:20:58.193Z,6.63
2022-08-28T03:23:28.597Z,6.43
2022-08-28T03:26:01.786Z,6.70
2022-08-28T03:28:33.634Z,6.00
2022-08-28T03:31:01.608Z,6.60
2022-08-28T03:33:29.571Z,6.35
2022-08-28T03:35:57.062Z,6.40
2022-08-28T03:38:25.279Z,6.28
2022-08-28T03:40:53.759Z,6.72
2022-08-28T03:43:24.400Z,6.28
2022-08-28T03:45:53.099Z,5.88
2022-08-28T03:48:20.763Z,6.57
2022-08-28T03:50:48.375Z,6.50
2022-08-28T03:53:16.651Z,6.00
2022-08-28T03:55:44.658Z,6.65
2022-08-28T03:58:12.295Z,6.57
2022-08-28T04:00:47.455Z,6.32
2022-08-28T04:03:15.245Z,6.55
2022-08-28T04:05:43.383Z,5.70
2022-08-28T04:08:12.032Z,6.13
2022-08-28T04:10:39.748Z,6.93
2022-08-28T04:13:07.233Z,6.43
2022-08-28T04:15:34.756Z,6.78
2022-08-28T04:18:02.390Z,6.38
2022-08-28T04:20:30.078Z,6.28
2022-08-28T04:22:57.618Z,6.43
2022-08-28T04:25:28.071Z,6.13
2022-08-28T04:27:55.552Z,6.05
2022-08-28T04:30:23.026Z,5.85
2022-08-28T04:32:50.611Z,5.57
2022-08-28T04:35:18.492Z,6.40
2022-08-28T04:37:46.312Z,6.35
2022-08-28T04:40:16.418Z,6.43
2022-08-28T04:42:45.210Z,6.10
2022-08-28T04:45:13.676Z,5.82
2022-08-28T04:47:41.303Z,6.45
2022-08-28T04:50:09.095Z,5.82
2022-08-28T04:52:36.607Z,6.60
2022-08-28T04:55:04.688Z,5.63
2022-08-28T04:57:35.773Z,6.28
2022-08-28T05:00:04.985Z,6.32
2022-08-28T05:02:32.971Z,5.40
2022-08-28T05:05:00.525Z,6.05
2022-08-28T05:07:28.079Z,6.38
2022-08-28T05:09:55.560Z,5.80
2022-08-28T05:12:23.176Z,5.80
2022-08-28T05:14:51.591Z,6.70
2022-08-28T05:17:19.192Z,6.30
2022-08-28T05:19:48.256Z,6.90
2022-08-28T05:22:15.852Z,5.80
2022-08-28T05:24:43.265Z,6.05
2022-08-28T05:27:10.844Z,6.25
2022-08-28T05:29:38.350Z,5.93
2022-08-28T05:32:06.052Z,5.55
2022-08-28T05:34:33.780Z,6.20
2022-08-28T05:37:02.251Z,5.70
2022-08-28T05:39:29.802Z,5.32
2022-08-28T05:41:57.468Z,5.65
2022-08-28T05:44:24.980Z,6.00
2022-08-28T05:46:52.509Z,5.68
2022-08-28T05:49:20.033Z,6.05
2022-08-28T05:51:48.427Z,5.63
2022-08-28T05:54:16.571Z,5.60
2022-08-28T05:56:45.244Z,5.35
2022-08-28T05:59:13.687Z,5.13
2022-08-28T06:01:45.950Z,5.07
2022-08-28T06:04:15.391Z,5.30
2022-08-28T06:06:46.918Z,5.07
2022-08-28T06:09:19.387Z,5.50
2022-08-28T06:11:47.502Z,5.57
2022-08-28T06:14:17.902Z,5.85
2022-08-28T06:16:47.115Z,5.45
2022-08-28T06:19:15.244Z,5.00
2022-08-28T06:21:42.906Z,5.10
2022-08-28T06:24:12.127Z,4.90
2022-08-28T06:26:39.736Z,5.18
2022-08-28T06:29:09.724Z,4.82
2022-08-28T06:31:37.661Z,5.70
2022-08-28T06:34:05.389Z,5.53
2022-08-28T06:36:37.862Z,5.10
2022-08-28T06:39:06.220Z,5.20
2022-08-28T06:41:34.315Z,5.18
2022-08-28T06:44:01.892Z,4.90
2022-08-28T06:46:30.613Z,5.00
2022-08-28T06:48:58.167Z,5.68
2022-08-28T06:51:25.778Z,5.32
2022-08-28T06:53:53.474Z,5.45
2022-08-28T06:56:26.111Z,4.80
2022-08-28T06:58:58.350Z,5.25
2022-08-28T07:01:27.110Z,4.70
2022-08-28T07:03:55.914Z,4.93
2022-08-28T07:06:24.005Z,5.00
2022-08-28T07:08:51.601Z,4.57
2022-08-28T07:11:22.053Z,4.78
2022-08-28T07:13:54.140Z,4.75
2022-08-28T07:16:22.799Z,4.40
2022-08-28T07:18:50.425Z,4.97
2022-08-28T07:21:18.103Z,5.25
2022-08-28T07:23:47.012Z,4.80
2022-08-28T07:26:19.348Z,5.45
2022-08-28T07:28:47.438Z,5.07
2022-08-28T07:31:20.177Z,4.95
2022-08-28T07:33:50.801Z,4.50
2022-08-28T07:36:28.882Z,4.97
2022-08-28T07:38:58.197Z,5.20
2022-08-28T07:41:27.732Z,4.43
2022-08-28T07:44:14.017Z,4.50
2022-08-28T07:46:41.596Z,4.47
2022-08-28T07:49:09.494Z,4.60
2022-08-28T07:51:37.118Z,4.38
2022-08-28T07:54:05.673Z,4.50
2022-08-28T07:56:33.914Z,4.28
2022-08-28T07:59:03.515Z,5.00
2022-08-28T08:01:31.611Z,4.60
2022-08-28T08:04:01.743Z,4.30
2022-08-28T08:06:33.794Z,4.80
2022-08-28T08:09:02.687Z,4.10
2022-08-28T08:11:32.364Z,4.40
2022-08-28T08:14:05.629Z,4.35
2022-08-28T08:16:39.133Z,4.60
2022-08-28T08:19:10.050Z,4.25
2022-08-28T08:21:37.947Z,3.97
2022-08-28T08:24:05.618Z,5.00
2022-08-28T08:26:33.338Z,4.22
2022-08-28T08:29:01.818Z,4.72
2022-08-28T08:31:33.709Z,4.70
2022-08-28T08:34:04.002Z,4.43
2022-08-28T08:36:32.416Z,4.22
2022-08-28T08:39:00.767Z,4.25
2022-08-28T08:41:34.376Z,4.55
2022-08-28T08:44:10.983Z,5.00
2022-08-28T08:46:41.479Z,4.28
2022-08-28T08:49:16.443Z,4.43
2022-08-28T08:51:48.019Z,3.92
2022-08-28T08:54:17.184Z,4.82
2022-08-28T08:56:45.856Z,4.70
2022-08-28T08:59:18.750Z,4.50
2022-08-28T09:02:02.098Z,4.53
2022-08-28T09:04:36.541Z,4.68
2022-08-28T09:07:19.197Z,4.22
2022-08-28T09:09:56.461Z,4.07
2022-08-28T09:12:25.397Z,4.13
2022-08-28T09:15:05.251Z,4.30
2022-08-28T09:17:35.701Z,4.55
2022-08-28T09:20:03.283Z,4.30
2022-08-28T09:22:30.822Z,4.50
2022-08-28T09:24:59.287Z,3.97
2022-08-28T09:27:35.019Z,3.90
2022-08-28T09:30:08.593Z,4.25
2022-08-28T09:32:55.813Z,4.18
2022-08-28T09:35:23.246Z,4.32
2022-08-28T09:37:51.283Z,3.95
2022-08-28T09:40:49.251Z,4.00
2022-08-28T09:43:28.933Z,4.60
2022-08-28T09:46:05.740Z,4.55
2022-08-28T09:48:36.245Z,4.30
2022-08-28T09:51:03.936Z,3.53
2022-08-28T09:53:33.210Z,3.88
2022-08-28T09:56:08.402Z,4.20
2022-08-28T09:58:42.111Z,4.55
2022-08-28T10:01:27.826Z,3.80
2022-08-28T10:04:15.375Z,3.63
2022-08-28T10:06:45.455Z,4.10
2022-08-28T10:09:25.029Z,4.13
2022-08-28T10:12:11.738Z,3.88
2022-08-28T10:14:39.225Z,4.05
2022-08-28T10:17:15.626Z,3.88
2022-08-28T10:19:53.202Z,3.97
2022-08-28T10:22:30.685Z,4.00
2022-08-28T10:25:04.634Z,4.03
2022-08-28T10:27:35.291Z,3.53
2022-08-28T10:30:12.938Z,3.78
2022-08-28T10:32:51.692Z,3.33
2022-08-28T10:35:22.325Z,3.58
2022-08-28T10:37:55.908Z,4.00
2022-08-28T10:40:44.981Z,3.80
2022-08-28T10:43:15.272Z,4.00
2022-08-28T10:45:43.099Z,3.55
2022-08-28T10:48:27.775Z,3.30
2022-08-28T10:50:57.448Z,3.30
2022-08-28T10:53:31.068Z,3.55
2022-08-28T10:56:07.893Z,3.35
2022-08-28T10:58:37.900Z,3.03
2022-08-28T11:01:07.843Z,3.78
2022-08-28T11:03:43.678Z,3.65
2022-08-28T11:06:33.489Z,3.17
2022-08-28T11:09:23.176Z,3.42
2022-08-28T11:11:51.151Z,3.35
2022-08-28T11:14:24.682Z,3.60
2022-08-28T11:16:53.122Z,3.70
2022-08-28T11:19:20.771Z,3.42
2022-08-28T11:21:51.349Z,3.50
2022-08-28T11:24:29.022Z,3.70
2022-08-28T11:26:59.587Z,3.58
2022-08-28T11:29:45.908Z,3.60
2022-08-28T11:32:31.900Z,3.60
2022-08-28T11:35:01.092Z,3.60
2022-08-28T11:37:40.559Z,3.78
2022-08-28T11:40:34.641Z,3.90
2022-08-28T11:43:14.705Z,3.70
2022-08-28T11:45:46.569Z,3.60
2022-08-28T11:48:23.824Z,3.50
2022-08-28T11:50:54.567Z,3.65
2022-08-28T11:53:34.463Z,3.63
2022-08-28T11:56:28.226Z,3.33
2022-08-28T11:59:01.926Z,3.28
2022-08-28T12:01:36.472Z,3.70
2022-08-28T12:04:08.222Z,3.63
2022-08-28T12:06:45.202Z,3.88
2022-08-28T12:09:13.652Z,3.75
2022-08-28T12:11:43.216Z,3.50
2022-08-28T12:14:12.047Z,3.33
2022-08-28T12:16:58.402Z,3.75
2022-08-28T12:19:31.936Z,3.38
2022-08-28T12:22:04.994Z,3.13
2022-08-28T12:24:32.544Z,3.20
2022-08-28T12:27:03.015Z,3.22
2022-08-28T12:29:30.576Z,3.30
2022-08-28T12:32:18.718Z,2.92
2022-08-28T12:34:51.935Z,3.28
2022-08-28T12:37:25.386Z,3.05
2022-08-28T12:39:53.644Z,3.20
2022-08-28T12:42:22.695Z,3.30
2022-08-28T12:44:50.403Z,3.00
2022-08-28T12:47:20.783Z,3.28
2022-08-28T12:49:48.268Z,3.20
2022-08-28T12:52:20.704Z,3.42
2022-08-28T12:54:49.340Z,3.25
2022-08-28T12:57:18.172Z,3.50
2022-08-28T12:59:47.428Z,3.45
2022-08-28T13:02:21.192Z,3.40
2022-08-28T13:04:55.551Z,3.38
2022-08-28T13:07:46.158Z,3.20
2022-08-28T13:10:24.647Z,3.45
2022-08-28T13:13:18.718Z,3.33
2022-08-28T13:15:50.726Z,3.80
2022-08-28T13:18:37.040Z,3.10
2022-08-28T13:21:16.511Z,3.03
2022-08-28T13:23:51.813Z,3.13
2022-08-28T13:26:25.863Z,2.92
2022-08-28T13:28:54.217Z,3.17
2022-08-28T13:31:30.957Z,3.30
2022-08-28T13:34:13.232Z,3.20
2022-08-28T13:36:43.343Z,2.83
2022-08-28T13:39:11.218Z,2.72
2022-08-28T13:41:38.999Z,3.00
2022-08-28T13:44:08.566Z,2.90
2022-08-28T13:46:36.364Z,2.92
2022-08-28T13:49:03.939Z,2.67
2022-08-28T13:51:31.597Z,3.03
2022-08-28T13:54:02.059Z,2.88
2022-08-28T13:56:29.554Z,3.40
2022-08-28T13:58:58.115Z,3.30
2022-08-28T14:01:49.150Z,3.03
2022-08-28T14:04:16.730Z,3.05
2022-08-28T14:06:44.426Z,3.35
2022-08-28T14:09:17.702Z,3.10
2022-08-28T14:11:46.389Z,3.00
2022-08-28T14:14:13.904Z,2.65
2022-08-28T14:16:41.853Z,3.65
2022-08-28T14:19:09.628Z,2.92
2022-08-28T14:21:38.428Z,3.00
2022-08-28T14:24:06.772Z,2.75
2022-08-28T14:26:34.368Z,2.75
2022-08-28T14:29:03.115Z,3.20
2022-08-28T14:31:30.759Z,3.00
2022-08-28T14:33:59.179Z,3.03
2022-08-28T14:36:28.506Z,2.95
2022-08-28T14:38:56.919Z,2.88
2022-08-28T14:41:25.669Z,3.15
2022-08-28T14:43:54.117Z,3.00
2022-08-28T14:46:28.702Z,2.83
2022-08-28T14:49:01.107Z,2.85
2022-08-28T14:51:29.197Z,2.92
2022-08-28T14:53:56.833Z,2.83
2022-08-28T14:56:24.602Z,2.97
2022-08-28T14:58:52.363Z,3.05
2022-08-28T15:01:31.971Z,3.08
2022-08-28T15:04:10.016Z,3.17
2022-08-28T15:06:38.011Z,3.05
2022-08-28T15:09:05.799Z,3.50
2022-08-28T15:11:35.452Z,3.08
2022-08-28T15:14:03.098Z,3.20
2022-08-28T15:16:35.406Z,3.20
2022-08-28T15:19:03.086Z,3.30
2022-08-28T15:21:32.847Z,3.13
2022-08-28T15:24:01.507Z,3.30
2022-08-28T15:26:29.471Z,3.30
2022-08-28T15:29:02.286Z,3.40
2022-08-28T15:31:31.069Z,3.20
2022-08-28T15:33:59.055Z,3.30
2022-08-28T15:36:26.615Z,3.40
2022-08-28T15:39:12.615Z,3.85
2022-08-28T15:41:40.325Z,4.03
2022-08-28T15:44:10.950Z,3.33
2022-08-28T15:46:40.820Z,3.60
2022-08-28T15:49:09.579Z,3.63
2022-08-28T15:51:38.193Z,3.63
2022-08-28T15:54:07.352Z,3.70
2022-08-28T15:56:35.154Z,3.58
2022-08-28T15:59:02.654Z,3.65
2022-08-28T16:01:30.300Z,3.60
2022-08-28T16:03:57.868Z,3.40
2022-08-28T16:06:26.854Z,4.03
2022-08-28T16:08:54.385Z,3.65
2022-08-28T16:11:23.156Z,3.95
2022-08-28T16:13:51.429Z,3.40
2022-08-28T16:16:19.282Z,3.63
2022-08-28T16:18:47.059Z,3.38
2022-08-28T16:21:14.743Z,3.50
2022-08-28T16:23:45.681Z,3.78
2022-08-28T16:26:16.456Z,3.50
2022-08-28T16:28:46.965Z,3.80
2022-08-28T16:31:19.947Z,3.40
2022-08-28T16:33:49.053Z,4.25
2022-08-28T16:36:18.728Z,3.75
2022-08-28T16:38:49.685Z,3.50
2022-08-28T16:41:27.806Z,3.67
2022-08-28T16:43:56.306Z,3.40
2022-08-28T16:46:25.382Z,3.63
2022-08-28T16:48:53.972Z,3.80
2022-08-28T16:51:21.860Z,3.63
2022-08-28T16:53:49.538Z,3.60
2022-08-28T16:56:18.371Z,3.42
2022-08-28T16:58:46.079Z,3.33
2022-08-28T17:01:14.124Z,3.28
2022-08-28T17:03:42.383Z,3.60
2022-08-28T17:06:32.301Z,3.83
2022-08-28T17:09:00.827Z,3.33
2022-08-28T17:11:28.942Z,3.40
2022-08-28T17:13:57.313Z,3.70
2022-08-28T17:16:26.085Z,3.33
2022-08-28T17:18:53.639Z,3.90
2022-08-28T17:21:40.356Z,4.00
2022-08-28T17:24:08.267Z,3.90
2022-08-28T17:26:35.849Z,3.92
2022-08-28T17:29:03.658Z,3.58
2022-08-28T17:31:31.570Z,3.90
2022-08-28T17:33:59.219Z,3.83
2022-08-28T17:36:33.495Z,3.55
2022-08-28T17:39:06.075Z,3.63
2022-08-28T17:41:34.133Z,3.97
2022-08-28T17:44:02.543Z,3.50
2022-08-28T17:46:33.972Z,3.40
2022-08-28T17:49:04.823Z,3.75
2022-08-28T17:51:42.278Z,3.95
2022-08-28T17:54:18.616Z,3.95
2022-08-28T17:56:46.653Z,3.70
2022-08-28T17:59:14.987Z,3.88
2022-08-28T18:01:43.246Z,3.80
2022-08-28T18:04:12.486Z,3.67
2022-08-28T18:06:40.054Z,3.95
2022-08-28T18:09:08.342Z,3.42
2022-08-28T18:11:35.964Z,3.85
2022-08-28T18:14:03.519Z,3.65
2022-08-28T18:16:32.637Z,3.70
2022-08-28T18:19:01.181Z,4.00
2022-08-28T18:21:29.205Z,3.90
2022-08-28T18:23:56.822Z,3.78
2022-08-28T18:26:24.747Z,3.90
2022-08-28T18:28:53.026Z,3.95
2022-08-28T18:31:21.023Z,3.92
2022-08-28T18:33:48.616Z,4.25
2022-08-28T18:36:16.616Z,3.50
2022-08-28T18:38:44.984Z,3.80
2022-08-28T18:41:13.224Z,4.10
2022-08-28T18:43:40.908Z,3.90
2022-08-28T18:46:09.306Z,3.72
2022-08-28T18:48:37.398Z,3.88
2022-08-28T18:51:08.704Z,3.92
2022-08-28T18:53:37.630Z,3.78
2022-08-28T18:56:06.715Z,3.67
2022-08-28T18:58:34.673Z,3.80
2022-08-28T19:01:03.530Z,4.43
2022-08-28T19:03:31.326Z,4.07
2022-08-28T19:05:58.900Z,3.65
2022-08-28T19:08:26.996Z,4.38
2022-08-28T19:10:55.300Z,3.80
2022-08-28T19:13:22.799Z,3.88
2022-08-28T19:15:51.748Z,4.05
2022-08-28T19:18:19.544Z,3.45
2022-08-28T19:20:47.212Z,3.60
2022-08-28T19:23:17.895Z,3.70
2022-08-28T19:25:46.156Z,3.90
2022-08-28T19:28:14.014Z,3.35
2022-08-28T19:30:42.325Z,3.75
2022-08-28T19:33:12.614Z,3.70
2022-08-28T19:35:40.142Z,3.92
2022-08-28T19:38:07.679Z,3.97
2022-08-28T19:40:35.697Z,3.88
2022-08-28T19:43:03.278Z,3.55
2022-08-28T19:45:34.135Z,3.83
2022-08-28T19:48:01.684Z,4.15
2022-08-28T19:50:29.202Z,4.10
2022-08-28T19:52:56.984Z,3.92
2022-08-28T19:55:26.166Z,3.92
2022-08-28T19:57:54.011Z,3.65
2022-08-28T20:00:23.140Z,3.70
2022-08-28T20:02:52.452Z,4.03
2022-08-28T20:05:20.944Z,4.10
2022-08-28T20:07:48.532Z,3.80
2022-08-28T20:10:16.683Z,4.22
2022-08-28T20:12:48.367Z,3.90
2022-08-28T20:15:17.649Z,3.70
2022-08-28T20:17:50.062Z,3.85
2022-08-28T20:20:19.468Z,3.67
2022-08-28T20:22:46.999Z,3.92
2022-08-28T20:25:15.804Z,3.90
2022-08-28T20:27:43.315Z,3.85
2022-08-28T20:30:11.639Z,4.15
2022-08-28T20:32:40.549Z,3.95
2022-08-28T20:35:09.969Z,3.65
2022-08-28T20:37:45.118Z,3.83
2022-08-28T20:40:18.158Z,4.50
2022-08-28T20:42:46.016Z,3.83
2022-08-28T20:45:15.276Z,3.58
2022-08-28T20:47:43.033Z,3.75
2022-08-28T20:50:11.197Z,4.55
2022-08-28T20:52:39.242Z,3.65
2022-08-28T20:55:07.963Z,3.58
2022-08-28T20:57:36.053Z,3.88
2022-08-28T21:00:05.752Z,4.10
2022-08-28T21:02:33.483Z,4.20
2022-08-28T21:05:01.435Z,4.03
2022-08-28T21:07:29.115Z,3.60
2022-08-28T21:10:06.679Z,3.80
2022-08-28T21:12:35.955Z,3.85
2022-08-28T21:15:03.578Z,4.00
2022-08-28T21:17:31.207Z,4.07
2022-08-28T21:20:00.431Z,3.55
2022-08-28T21:22:28.515Z,3.67
2022-08-28T21:24:56.283Z,3.40
2022-08-28T21:27:25.783Z,3.90
2022-08-28T21:29:55.756Z,3.55
2022-08-28T21:32:23.287Z,3.60
2022-08-28T21:34:50.836Z,3.60
2022-08-28T21:37:18.806Z,3.60
2022-08-28T21:39:46.384Z,3.83
2022-08-28T21:42:14.009Z,3.95
2022-08-28T21:44:46.115Z,3.60
2022-08-28T21:47:21.598Z,3.67
2022-08-28T21:49:53.336Z,3.65
2022-08-28T21:52:22.091Z,3.67
2022-08-28T21:54:49.788Z,3.50
2022-08-28T21:57:17.894Z,3.97
2022-08-28T21:59:45.406Z,3.80
2022-08-28T22:02:12.963Z,3.78
2022-08-28T22:04:40.616Z,3.80
2022-08-28T22:07:11.203Z,3.67
2022-08-28T22:09:38.898Z,4.03
2022-08-28T22:12:06.604Z,3.63
2022-08-28T22:14:34.150Z,3.95
2022-08-28T22:17:01.725Z,4.05
2022-08-28T22:19:32.137Z,4.10
2022-08-28T22:22:18.270Z,3.72
2022-08-28T22:24:45.803Z,3.50
2022-08-28T22:27:14.411Z,3.63
2022-08-28T22:29:41.929Z,3.50
2022-08-28T22:32:09.871Z,3.85
2022-08-28T22:34:45.482Z,3.88
2022-08-28T22:37:13.406Z,4.00
2022-08-28T22:39:41.216Z,3.53
2022-08-28T22:42:09.939Z,4.13
2022-08-28T22:44:38.740Z,4.20
2022-08-28T22:47:07.346Z,3.83
2022-08-28T22:49:39.420Z,3.83
2022-08-28T22:52:10.001Z,3.90
2022-08-28T22:54:37.606Z,3.72
2022-08-28T22:57:05.993Z,3.65
2022-08-28T22:59:35.381Z,3.55
2022-08-28T23:02:03.822Z,3.58
2022-08-28T23:04:31.419Z,3.70
2022-08-28T23:06:59.086Z,3.83
2022-08-28T23:09:27.649Z,3.80
2022-08-28T23:11:55.098Z,3.90
2022-08-28T23:14:27.728Z,3.88
2022-08-28T23:16:56.048Z,3.88
2022-08-28T23:19:23.651Z,4.05
2022-08-28T23:21:51.407Z,3.80
2022-08-28T23:24:18.892Z,3.72
2022-08-28T23:26:46.454Z,3.75
2022-08-28T23:29:14.758Z,3.53
2022-08-28T23:31:42.413Z,3.75
2022-08-28T23:34:10.359Z,3.85
2022-08-28T23:36:39.542Z,4.03
2022-08-28T23:39:10.653Z,3.75
2022-08-28T23:41:38.751Z,3.50
2022-08-28T23:44:08.993Z,4.10
2022-08-28T23:46:41.186Z,3.75
2022-08-28T23:49:09.469Z,3.30
2022-08-28T23:51:37.167Z,3.78
2022-08-28T23:54:04.725Z,3.85
2022-08-28T23:56:33.719Z,3.60
2022-08-28T23:59:01.223Z,4.20
